sensor_id;sensor_type;location;lat;lon;timestamp;P1;durP1;ratioP1;P2;durP2;ratioP2
22314;SDS011;11325;55.686;37.566;2024-01-30T00:01:55;13.18;;;6.20;;
22314;SDS011;11325;55.686;37.566;2024-01-30T00:04:24;10.95;;;5.97;;
22314;SDS011;11325;55.686;37.566;2024-01-30T00:06:52;9.60;;;5.83;;
22314;SDS011;11325;55.686;37.566;2024-01-30T00:09:21;10.35;;;6.10;;
22314;SDS011;11325;55.686;37.566;2024-01-30T00:11:50;10.25;;;5.75;;
22314;SDS011;11325;55.686;37.566;2024-01-30T00:14:18;10.82;;;5.72;;
22314;SDS011;11325;55.686;37.566;2024-01-30T00:16:47;11.50;;;6.28;;
22314;SDS011;11325;55.686;37.566;2024-01-30T00:19:16;10.03;;;5.33;;
22314;SDS011;11325;55.686;37.566;2024-01-30T00:21:45;12.40;;;5.83;;
22314;SDS011;11325;55.686;37.566;2024-01-30T00:24:13;9.98;;;5.60;;
22314;SDS011;11325;55.686;37.566;2024-01-30T00:26:42;12.28;;;6.17;;
22314;SDS011;11325;55.686;37.566;2024-01-30T00:29:11;11.97;;;5.67;;
22314;SDS011;11325;55.686;37.566;2024-01-30T00:31:40;10.55;;;5.83;;
22314;SDS011;11325;55.686;37.566;2024-01-30T00:34:08;13.18;;;6.30;;
22314;SDS011;11325;55.686;37.566;2024-01-30T00:36:37;13.58;;;6.17;;
22314;SDS011;11325;55.686;37.566;2024-01-30T00:39:05;11.73;;;6.25;;
22314;SDS011;11325;55.686;37.566;2024-01-30T00:41:36;11.50;;;6.03;;
22314;SDS011;11325;55.686;37.566;2024-01-30T00:44:04;12.33;;;6.12;;
22314;SDS011;11325;55.686;37.566;2024-01-30T00:46:33;11.10;;;5.90;;
22314;SDS011;11325;55.686;37.566;2024-01-30T00:49:02;11.83;;;6.67;;
22314;SDS011;11325;55.686;37.566;2024-01-30T00:51:30;10.80;;;6.03;;
22314;SDS011;11325;55.686;37.566;2024-01-30T00:53:59;10.88;;;5.45;;
22314;SDS011;11325;55.686;37.566;2024-01-30T00:56:28;9.70;;;5.47;;
22314;SDS011;11325;55.686;37.566;2024-01-30T00:58:57;10.88;;;5.70;;
22314;SDS011;11325;55.686;37.566;2024-01-30T01:01:25;13.50;;;5.53;;
22314;SDS011;11325;55.686;37.566;2024-01-30T01:03:54;11.93;;;5.25;;
22314;SDS011;11325;55.686;37.566;2024-01-30T01:06:23;11.18;;;5.97;;
22314;SDS011;11325;55.686;37.566;2024-01-30T01:08:51;10.05;;;5.80;;
22314;SDS011;11325;55.686;37.566;2024-01-30T01:11:20;14.43;;;6.33;;
22314;SDS011;11325;55.686;37.566;2024-01-30T01:13:48;11.63;;;6.22;;
22314;SDS011;11325;55.686;37.566;2024-01-30T01:16:17;13.20;;;6.03;;
22314;SDS011;11325;55.686;37.566;2024-01-30T01:18:46;10.93;;;5.95;;
22314;SDS011;11325;55.686;37.566;2024-01-30T01:21:14;9.53;;;6.05;;
22314;SDS011;11325;55.686;37.566;2024-01-30T01:23:44;13.08;;;5.95;;
22314;SDS011;11325;55.686;37.566;2024-01-30T01:26:12;9.68;;;5.50;;
22314;SDS011;11325;55.686;37.566;2024-01-30T01:28:41;10.90;;;5.58;;
22314;SDS011;11325;55.686;37.566;2024-01-30T01:31:11;13.40;;;6.05;;
22314;SDS011;11325;55.686;37.566;2024-01-30T01:33:39;11.40;;;5.85;;
22314;SDS011;11325;55.686;37.566;2024-01-30T01:36:08;14.65;;;5.90;;
22314;SDS011;11325;55.686;37.566;2024-01-30T01:38:36;11.03;;;6.17;;
22314;SDS011;11325;55.686;37.566;2024-01-30T01:41:05;11.12;;;5.97;;
22314;SDS011;11325;55.686;37.566;2024-01-30T01:43:34;14.63;;;6.20;;
22314;SDS011;11325;55.686;37.566;2024-01-30T01:46:02;8.98;;;4.72;;
22314;SDS011;11325;55.686;37.566;2024-01-30T01:48:31;11.55;;;5.50;;
22314;SDS011;11325;55.686;37.566;2024-01-30T01:51:00;12.25;;;6.15;;
22314;SDS011;11325;55.686;37.566;2024-01-30T01:53:29;10.78;;;5.62;;
22314;SDS011;11325;55.686;37.566;2024-01-30T01:55:57;10.65;;;5.10;;
22314;SDS011;11325;55.686;37.566;2024-01-30T01:58:26;11.83;;;5.42;;
22314;SDS011;11325;55.686;37.566;2024-01-30T02:00:56;10.28;;;5.75;;
22314;SDS011;11325;55.686;37.566;2024-01-30T02:03:26;12.13;;;6.00;;
22314;SDS011;11325;55.686;37.566;2024-01-30T02:05:54;11.73;;;5.53;;
22314;SDS011;11325;55.686;37.566;2024-01-30T02:08:24;12.28;;;6.42;;
22314;SDS011;11325;55.686;37.566;2024-01-30T02:10:52;8.40;;;5.35;;
22314;SDS011;11325;55.686;37.566;2024-01-30T02:13:22;10.85;;;5.78;;
22314;SDS011;11325;55.686;37.566;2024-01-30T02:15:53;11.08;;;5.72;;
22314;SDS011;11325;55.686;37.566;2024-01-30T02:18:22;9.85;;;5.10;;
22314;SDS011;11325;55.686;37.566;2024-01-30T02:20:53;11.60;;;6.90;;
22314;SDS011;11325;55.686;37.566;2024-01-30T02:23:23;10.40;;;5.62;;
22314;SDS011;11325;55.686;37.566;2024-01-30T02:25:55;9.90;;;5.67;;
22314;SDS011;11325;55.686;37.566;2024-01-30T02:28:24;10.85;;;5.47;;
22314;SDS011;11325;55.686;37.566;2024-01-30T02:30:52;12.07;;;6.95;;
22314;SDS011;11325;55.686;37.566;2024-01-30T02:33:21;10.65;;;5.58;;
22314;SDS011;11325;55.686;37.566;2024-01-30T02:35:50;11.95;;;5.65;;
22314;SDS011;11325;55.686;37.566;2024-01-30T02:38:18;13.00;;;5.60;;
22314;SDS011;11325;55.686;37.566;2024-01-30T02:40:47;10.80;;;5.97;;
22314;SDS011;11325;55.686;37.566;2024-01-30T02:43:16;11.93;;;6.62;;
22314;SDS011;11325;55.686;37.566;2024-01-30T02:45:44;12.68;;;5.90;;
22314;SDS011;11325;55.686;37.566;2024-01-30T02:48:13;11.45;;;5.65;;
22314;SDS011;11325;55.686;37.566;2024-01-30T02:50:42;11.10;;;6.40;;
22314;SDS011;11325;55.686;37.566;2024-01-30T02:53:10;12.30;;;6.30;;
22314;SDS011;11325;55.686;37.566;2024-01-30T02:55:39;16.27;;;5.97;;
22314;SDS011;11325;55.686;37.566;2024-01-30T02:58:08;9.43;;;5.78;;
22314;SDS011;11325;55.686;37.566;2024-01-30T03:00:36;10.68;;;6.05;;
22314;SDS011;11325;55.686;37.566;2024-01-30T03:03:05;8.45;;;4.72;;
22314;SDS011;11325;55.686;37.566;2024-01-30T03:05:34;13.53;;;5.95;;
22314;SDS011;11325;55.686;37.566;2024-01-30T03:08:03;8.78;;;5.30;;
22314;SDS011;11325;55.686;37.566;2024-01-30T03:10:32;14.07;;;6.17;;
22314;SDS011;11325;55.686;37.566;2024-01-30T03:13:00;11.48;;;6.08;;
22314;SDS011;11325;55.686;37.566;2024-01-30T03:15:29;9.25;;;5.78;;
22314;SDS011;11325;55.686;37.566;2024-01-30T03:17:58;12.00;;;6.30;;
22314;SDS011;11325;55.686;37.566;2024-01-30T03:20:26;11.85;;;6.28;;
22314;SDS011;11325;55.686;37.566;2024-01-30T03:22:55;13.40;;;6.37;;
22314;SDS011;11325;55.686;37.566;2024-01-30T03:25:24;11.12;;;6.17;;
22314;SDS011;11325;55.686;37.566;2024-01-30T03:27:53;7.80;;;4.70;;
22314;SDS011;11325;55.686;37.566;2024-01-30T03:30:22;10.60;;;5.55;;
22314;SDS011;11325;55.686;37.566;2024-01-30T03:32:50;17.75;;;6.85;;
22314;SDS011;11325;55.686;37.566;2024-01-30T03:35:19;10.38;;;5.45;;
22314;SDS011;11325;55.686;37.566;2024-01-30T03:37:47;11.25;;;6.60;;
22314;SDS011;11325;55.686;37.566;2024-01-30T03:40:16;11.83;;;6.28;;
22314;SDS011;11325;55.686;37.566;2024-01-30T03:42:45;12.07;;;5.40;;
22314;SDS011;11325;55.686;37.566;2024-01-30T03:45:13;11.80;;;5.75;;
22314;SDS011;11325;55.686;37.566;2024-01-30T03:47:43;14.03;;;6.05;;
22314;SDS011;11325;55.686;37.566;2024-01-30T03:50:12;10.48;;;5.55;;
22314;SDS011;11325;55.686;37.566;2024-01-30T03:52:41;10.98;;;5.90;;
22314;SDS011;11325;55.686;37.566;2024-01-30T03:55:10;13.98;;;6.50;;
22314;SDS011;11325;55.686;37.566;2024-01-30T03:57:38;11.33;;;5.80;;
22314;SDS011;11325;55.686;37.566;2024-01-30T04:00:07;8.43;;;5.50;;
22314;SDS011;11325;55.686;37.566;2024-01-30T04:02:36;11.70;;;6.03;;
22314;SDS011;11325;55.686;37.566;2024-01-30T04:05:05;11.38;;;6.53;;
22314;SDS011;11325;55.686;37.566;2024-01-30T04:07:34;15.83;;;7.05;;
22314;SDS011;11325;55.686;37.566;2024-01-30T04:10:02;11.65;;;5.95;;
22314;SDS011;11325;55.686;37.566;2024-01-30T04:12:33;9.53;;;6.15;;
22314;SDS011;11325;55.686;37.566;2024-01-30T04:15:02;10.85;;;5.92;;
22314;SDS011;11325;55.686;37.566;2024-01-30T04:17:31;11.53;;;6.03;;
22314;SDS011;11325;55.686;37.566;2024-01-30T04:20:01;10.98;;;5.70;;
22314;SDS011;11325;55.686;37.566;2024-01-30T04:22:30;12.25;;;5.90;;
22314;SDS011;11325;55.686;37.566;2024-01-30T04:24:59;10.50;;;6.03;;
22314;SDS011;11325;55.686;37.566;2024-01-30T04:27:29;14.13;;;6.83;;
22314;SDS011;11325;55.686;37.566;2024-01-30T04:30:00;9.78;;;5.47;;
22314;SDS011;11325;55.686;37.566;2024-01-30T04:32:31;10.75;;;6.30;;
22314;SDS011;11325;55.686;37.566;2024-01-30T04:35:00;14.83;;;6.47;;
22314;SDS011;11325;55.686;37.566;2024-01-30T04:37:30;9.15;;;5.12;;
22314;SDS011;11325;55.686;37.566;2024-01-30T04:39:59;14.58;;;6.72;;
22314;SDS011;11325;55.686;37.566;2024-01-30T04:42:29;14.15;;;5.78;;
22314;SDS011;11325;55.686;37.566;2024-01-30T04:44:58;10.98;;;6.17;;
22314;SDS011;11325;55.686;37.566;2024-01-30T04:47:26;12.33;;;6.50;;
22314;SDS011;11325;55.686;37.566;2024-01-30T04:49:55;14.23;;;6.60;;
22314;SDS011;11325;55.686;37.566;2024-01-30T04:52:24;11.38;;;6.62;;
22314;SDS011;11325;55.686;37.566;2024-01-30T04:54:52;13.20;;;7.22;;
22314;SDS011;11325;55.686;37.566;2024-01-30T04:57:21;12.28;;;6.83;;
22314;SDS011;11325;55.686;37.566;2024-01-30T04:59:50;12.43;;;6.85;;
22314;SDS011;11325;55.686;37.566;2024-01-30T05:02:19;11.40;;;6.47;;
22314;SDS011;11325;55.686;37.566;2024-01-30T05:04:47;13.95;;;6.97;;
22314;SDS011;11325;55.686;37.566;2024-01-30T05:07:16;11.55;;;6.72;;
22314;SDS011;11325;55.686;37.566;2024-01-30T05:09:45;15.28;;;7.47;;
22314;SDS011;11325;55.686;37.566;2024-01-30T05:12:14;13.13;;;6.17;;
22314;SDS011;11325;55.686;37.566;2024-01-30T05:14:42;12.18;;;7.47;;
22314;SDS011;11325;55.686;37.566;2024-01-30T05:17:11;12.82;;;6.80;;
22314;SDS011;11325;55.686;37.566;2024-01-30T05:19:40;16.17;;;7.85;;
22314;SDS011;11325;55.686;37.566;2024-01-30T05:22:09;11.80;;;7.20;;
22314;SDS011;11325;55.686;37.566;2024-01-30T05:24:38;15.23;;;6.55;;
22314;SDS011;11325;55.686;37.566;2024-01-30T05:27:06;12.50;;;7.22;;
22314;SDS011;11325;55.686;37.566;2024-01-30T05:29:35;12.60;;;6.58;;
22314;SDS011;11325;55.686;37.566;2024-01-30T05:32:04;13.43;;;6.90;;
22314;SDS011;11325;55.686;37.566;2024-01-30T05:34:33;13.75;;;7.33;;
22314;SDS011;11325;55.686;37.566;2024-01-30T05:37:02;12.82;;;6.10;;
22314;SDS011;11325;55.686;37.566;2024-01-30T05:39:31;9.65;;;5.70;;
22314;SDS011;11325;55.686;37.566;2024-01-30T05:42:00;10.75;;;6.47;;
22314;SDS011;11325;55.686;37.566;2024-01-30T05:44:29;11.00;;;6.03;;
22314;SDS011;11325;55.686;37.566;2024-01-30T05:46:59;14.13;;;6.45;;
22314;SDS011;11325;55.686;37.566;2024-01-30T05:49:27;14.68;;;6.12;;
22314;SDS011;11325;55.686;37.566;2024-01-30T05:51:56;12.05;;;5.92;;
22314;SDS011;11325;55.686;37.566;2024-01-30T05:54:24;14.75;;;6.15;;
22314;SDS011;11325;55.686;37.566;2024-01-30T05:56:53;11.60;;;6.37;;
22314;SDS011;11325;55.686;37.566;2024-01-30T05:59:22;13.18;;;6.97;;
22314;SDS011;11325;55.686;37.566;2024-01-30T06:01:51;16.75;;;6.20;;
22314;SDS011;11325;55.686;37.566;2024-01-30T06:04:19;11.15;;;6.00;;
22314;SDS011;11325;55.686;37.566;2024-01-30T06:06:48;14.60;;;7.10;;
22314;SDS011;11325;55.686;37.566;2024-01-30T06:09:16;13.60;;;6.62;;
22314;SDS011;11325;55.686;37.566;2024-01-30T06:11:45;12.47;;;6.70;;
22314;SDS011;11325;55.686;37.566;2024-01-30T06:14:14;12.58;;;6.37;;
22314;SDS011;11325;55.686;37.566;2024-01-30T06:16:43;14.33;;;6.42;;
22314;SDS011;11325;55.686;37.566;2024-01-30T06:19:12;15.15;;;7.37;;
22314;SDS011;11325;55.686;37.566;2024-01-30T06:21:41;13.05;;;6.90;;
22314;SDS011;11325;55.686;37.566;2024-01-30T06:24:09;12.85;;;6.67;;
22314;SDS011;11325;55.686;37.566;2024-01-30T06:26:38;10.63;;;5.75;;
22314;SDS011;11325;55.686;37.566;2024-01-30T06:29:07;14.28;;;6.80;;
22314;SDS011;11325;55.686;37.566;2024-01-30T06:31:42;14.20;;;6.33;;
22314;SDS011;11325;55.686;37.566;2024-01-30T06:34:10;14.58;;;6.87;;
22314;SDS011;11325;55.686;37.566;2024-01-30T06:36:39;13.80;;;7.17;;
22314;SDS011;11325;55.686;37.566;2024-01-30T06:39:08;10.88;;;6.53;;
22314;SDS011;11325;55.686;37.566;2024-01-30T06:41:36;12.78;;;6.90;;
22314;SDS011;11325;55.686;37.566;2024-01-30T06:44:05;17.82;;;6.85;;
22314;SDS011;11325;55.686;37.566;2024-01-30T06:46:35;15.32;;;7.53;;
22314;SDS011;11325;55.686;37.566;2024-01-30T06:49:04;14.98;;;7.08;;
22314;SDS011;11325;55.686;37.566;2024-01-30T06:51:33;9.65;;;6.45;;
22314;SDS011;11325;55.686;37.566;2024-01-30T06:54:01;14.13;;;7.03;;
22314;SDS011;11325;55.686;37.566;2024-01-30T06:56:30;13.28;;;6.78;;
22314;SDS011;11325;55.686;37.566;2024-01-30T06:58:59;14.30;;;7.40;;
22314;SDS011;11325;55.686;37.566;2024-01-30T07:01:28;13.25;;;6.70;;
22314;SDS011;11325;55.686;37.566;2024-01-30T07:03:57;13.08;;;6.80;;
22314;SDS011;11325;55.686;37.566;2024-01-30T07:06:26;11.73;;;6.10;;
22314;SDS011;11325;55.686;37.566;2024-01-30T07:08:54;11.15;;;7.10;;
22314;SDS011;11325;55.686;37.566;2024-01-30T07:11:23;12.60;;;6.15;;
22314;SDS011;11325;55.686;37.566;2024-01-30T07:13:52;11.45;;;6.12;;
22314;SDS011;11325;55.686;37.566;2024-01-30T07:16:21;17.73;;;7.28;;
22314;SDS011;11325;55.686;37.566;2024-01-30T07:18:50;18.35;;;6.65;;
22314;SDS011;11325;55.686;37.566;2024-01-30T07:21:19;14.00;;;8.18;;
22314;SDS011;11325;55.686;37.566;2024-01-30T07:23:49;18.42;;;7.37;;
22314;SDS011;11325;55.686;37.566;2024-01-30T07:26:17;12.28;;;7.05;;
22314;SDS011;11325;55.686;37.566;2024-01-30T07:28:46;18.55;;;7.83;;
22314;SDS011;11325;55.686;37.566;2024-01-30T07:31:15;14.03;;;7.03;;
22314;SDS011;11325;55.686;37.566;2024-01-30T07:33:43;14.93;;;7.00;;
22314;SDS011;11325;55.686;37.566;2024-01-30T07:36:12;24.92;;;12.30;;
22314;SDS011;11325;55.686;37.566;2024-01-30T07:38:40;14.23;;;7.97;;
22314;SDS011;11325;55.686;37.566;2024-01-30T07:41:09;17.10;;;7.67;;
22314;SDS011;11325;55.686;37.566;2024-01-30T07:43:38;17.20;;;7.10;;
22314;SDS011;11325;55.686;37.566;2024-01-30T07:46:06;19.45;;;8.33;;
22314;SDS011;11325;55.686;37.566;2024-01-30T07:48:35;15.40;;;6.70;;
22314;SDS011;11325;55.686;37.566;2024-01-30T07:51:04;18.17;;;7.62;;
22314;SDS011;11325;55.686;37.566;2024-01-30T07:53:32;11.95;;;6.95;;
22314;SDS011;11325;55.686;37.566;2024-01-30T07:56:01;15.15;;;7.72;;
22314;SDS011;11325;55.686;37.566;2024-01-30T07:58:30;22.80;;;7.78;;
22314;SDS011;11325;55.686;37.566;2024-01-30T08:00:58;13.80;;;6.78;;
22314;SDS011;11325;55.686;37.566;2024-01-30T08:03:28;18.30;;;7.97;;
22314;SDS011;11325;55.686;37.566;2024-01-30T08:05:56;17.48;;;7.62;;
22314;SDS011;11325;55.686;37.566;2024-01-30T08:08:25;15.35;;;8.50;;
22314;SDS011;11325;55.686;37.566;2024-01-30T08:10:54;17.20;;;7.75;;
22314;SDS011;11325;55.686;37.566;2024-01-30T08:13:23;17.30;;;7.45;;
22314;SDS011;11325;55.686;37.566;2024-01-30T08:15:51;15.60;;;7.12;;
22314;SDS011;11325;55.686;37.566;2024-01-30T08:18:20;12.20;;;6.95;;
22314;SDS011;11325;55.686;37.566;2024-01-30T08:20:48;10.70;;;6.55;;
22314;SDS011;11325;55.686;37.566;2024-01-30T08:23:17;15.55;;;7.80;;
22314;SDS011;11325;55.686;37.566;2024-01-30T08:25:46;14.60;;;7.12;;
22314;SDS011;11325;55.686;37.566;2024-01-30T08:28:14;19.85;;;9.08;;
22314;SDS011;11325;55.686;37.566;2024-01-30T08:30:43;16.85;;;8.48;;
22314;SDS011;11325;55.686;37.566;2024-01-30T08:33:11;22.73;;;8.28;;
22314;SDS011;11325;55.686;37.566;2024-01-30T08:35:40;16.87;;;7.70;;
22314;SDS011;11325;55.686;37.566;2024-01-30T08:38:09;14.75;;;7.47;;
22314;SDS011;11325;55.686;37.566;2024-01-30T08:40:39;15.23;;;7.53;;
22314;SDS011;11325;55.686;37.566;2024-01-30T08:43:08;15.00;;;7.70;;
22314;SDS011;11325;55.686;37.566;2024-01-30T08:45:37;15.43;;;7.87;;
22314;SDS011;11325;55.686;37.566;2024-01-30T08:48:06;14.50;;;8.28;;
22314;SDS011;11325;55.686;37.566;2024-01-30T08:50:35;18.75;;;7.47;;
22314;SDS011;11325;55.686;37.566;2024-01-30T08:53:04;18.15;;;7.08;;
22314;SDS011;11325;55.686;37.566;2024-01-30T08:55:32;20.75;;;8.23;;
22314;SDS011;11325;55.686;37.566;2024-01-30T08:58:01;15.45;;;8.00;;
22314;SDS011;11325;55.686;37.566;2024-01-30T09:00:32;16.82;;;7.92;;
22314;SDS011;11325;55.686;37.566;2024-01-30T09:03:00;18.67;;;7.87;;
22314;SDS011;11325;55.686;37.566;2024-01-30T09:05:29;16.85;;;7.67;;
22314;SDS011;11325;55.686;37.566;2024-01-30T09:07:58;18.27;;;7.85;;
22314;SDS011;11325;55.686;37.566;2024-01-30T09:10:26;18.98;;;7.40;;
22314;SDS011;11325;55.686;37.566;2024-01-30T09:12:55;14.50;;;7.55;;
22314;SDS011;11325;55.686;37.566;2024-01-30T09:15:23;29.42;;;8.35;;
22314;SDS011;11325;55.686;37.566;2024-01-30T09:17:52;18.80;;;8.05;;
22314;SDS011;11325;55.686;37.566;2024-01-30T09:20:20;14.58;;;7.80;;
22314;SDS011;11325;55.686;37.566;2024-01-30T09:22:50;16.97;;;7.70;;
22314;SDS011;11325;55.686;37.566;2024-01-30T09:25:19;15.28;;;8.28;;
22314;SDS011;11325;55.686;37.566;2024-01-30T09:27:47;19.90;;;7.95;;
22314;SDS011;11325;55.686;37.566;2024-01-30T09:30:16;24.10;;;8.83;;
22314;SDS011;11325;55.686;37.566;2024-01-30T09:32:45;20.05;;;7.83;;
22314;SDS011;11325;55.686;37.566;2024-01-30T09:35:13;16.73;;;8.23;;
22314;SDS011;11325;55.686;37.566;2024-01-30T09:37:42;19.00;;;8.80;;
22314;SDS011;11325;55.686;37.566;2024-01-30T09:40:11;17.40;;;8.50;;
22314;SDS011;11325;55.686;37.566;2024-01-30T09:42:39;15.70;;;8.28;;
22314;SDS011;11325;55.686;37.566;2024-01-30T09:45:08;17.45;;;8.28;;
22314;SDS011;11325;55.686;37.566;2024-01-30T09:47:42;16.50;;;8.65;;
22314;SDS011;11325;55.686;37.566;2024-01-30T09:50:11;25.27;;;8.63;;
22314;SDS011;11325;55.686;37.566;2024-01-30T09:52:40;17.48;;;8.30;;
22314;SDS011;11325;55.686;37.566;2024-01-30T09:55:09;20.70;;;8.48;;
22314;SDS011;11325;55.686;37.566;2024-01-30T09:57:38;15.98;;;7.50;;
22314;SDS011;11325;55.686;37.566;2024-01-30T10:00:06;15.25;;;7.90;;
22314;SDS011;11325;55.686;37.566;2024-01-30T10:02:36;19.50;;;7.80;;
22314;SDS011;11325;55.686;37.566;2024-01-30T10:05:05;21.42;;;8.75;;
22314;SDS011;11325;55.686;37.566;2024-01-30T10:07:33;23.38;;;8.08;;
22314;SDS011;11325;55.686;37.566;2024-01-30T10:10:02;16.82;;;8.55;;
22314;SDS011;11325;55.686;37.566;2024-01-30T10:12:31;16.25;;;8.45;;
22314;SDS011;11325;55.686;37.566;2024-01-30T10:15:00;16.42;;;8.68;;
22314;SDS011;11325;55.686;37.566;2024-01-30T10:17:31;13.75;;;7.45;;
22314;SDS011;11325;55.686;37.566;2024-01-30T10:20:03;16.27;;;8.43;;
22314;SDS011;11325;55.686;37.566;2024-01-30T10:22:31;18.65;;;8.28;;
22314;SDS011;11325;55.686;37.566;2024-01-30T10:25:00;15.93;;;7.20;;
22314;SDS011;11325;55.686;37.566;2024-01-30T10:27:30;15.63;;;7.83;;
22314;SDS011;11325;55.686;37.566;2024-01-30T10:29:59;16.77;;;7.95;;
22314;SDS011;11325;55.686;37.566;2024-01-30T10:32:29;21.68;;;8.98;;
22314;SDS011;11325;55.686;37.566;2024-01-30T10:34:57;27.75;;;10.53;;
22314;SDS011;11325;55.686;37.566;2024-01-30T10:37:26;19.95;;;8.20;;
22314;SDS011;11325;55.686;37.566;2024-01-30T10:39:57;21.82;;;8.40;;
22314;SDS011;11325;55.686;37.566;2024-01-30T10:42:28;16.52;;;8.38;;
22314;SDS011;11325;55.686;37.566;2024-01-30T10:45:11;18.65;;;8.50;;
22314;SDS011;11325;55.686;37.566;2024-01-30T10:47:48;20.08;;;8.90;;
22314;SDS011;11325;55.686;37.566;2024-01-30T10:50:16;20.40;;;8.18;;
22314;SDS011;11325;55.686;37.566;2024-01-30T10:52:45;19.70;;;9.08;;
22314;SDS011;11325;55.686;37.566;2024-01-30T10:55:14;14.90;;;7.50;;
22314;SDS011;11325;55.686;37.566;2024-01-30T10:57:44;19.10;;;8.03;;
22314;SDS011;11325;55.686;37.566;2024-01-30T11:00:14;19.25;;;8.25;;
22314;SDS011;11325;55.686;37.566;2024-01-30T11:02:43;14.83;;;7.95;;
22314;SDS011;11325;55.686;37.566;2024-01-30T11:05:13;17.17;;;7.97;;
22314;SDS011;11325;55.686;37.566;2024-01-30T11:07:43;18.37;;;9.28;;
22314;SDS011;11325;55.686;37.566;2024-01-30T11:10:11;17.37;;;8.28;;
22314;SDS011;11325;55.686;37.566;2024-01-30T11:12:42;15.40;;;8.15;;
22314;SDS011;11325;55.686;37.566;2024-01-30T11:15:18;23.38;;;7.65;;
22314;SDS011;11325;55.686;37.566;2024-01-30T11:20:14;17.60;;;8.63;;
22314;SDS011;11325;55.686;37.566;2024-01-30T11:22:42;15.20;;;8.40;;
22314;SDS011;11325;55.686;37.566;2024-01-30T11:25:12;18.02;;;8.83;;
22314;SDS011;11325;55.686;37.566;2024-01-30T11:27:41;25.32;;;10.08;;
22314;SDS011;11325;55.686;37.566;2024-01-30T11:30:11;20.85;;;9.13;;
22314;SDS011;11325;55.686;37.566;2024-01-30T11:32:40;19.90;;;8.20;;
22314;SDS011;11325;55.686;37.566;2024-01-30T11:35:10;18.27;;;9.05;;
22314;SDS011;11325;55.686;37.566;2024-01-30T11:37:40;17.45;;;8.15;;
22314;SDS011;11325;55.686;37.566;2024-01-30T11:40:08;19.42;;;8.45;;
22314;SDS011;11325;55.686;37.566;2024-01-30T11:42:37;24.75;;;9.48;;
22314;SDS011;11325;55.686;37.566;2024-01-30T11:45:07;21.20;;;8.18;;
22314;SDS011;11325;55.686;37.566;2024-01-30T11:47:36;19.90;;;8.55;;
22314;SDS011;11325;55.686;37.566;2024-01-30T11:50:05;16.52;;;7.90;;
22314;SDS011;11325;55.686;37.566;2024-01-30T11:52:34;16.52;;;8.98;;
22314;SDS011;11325;55.686;37.566;2024-01-30T11:55:02;17.37;;;9.08;;
22314;SDS011;11325;55.686;37.566;2024-01-30T11:57:31;18.77;;;9.40;;
22314;SDS011;11325;55.686;37.566;2024-01-30T12:00:00;21.95;;;9.10;;
22314;SDS011;11325;55.686;37.566;2024-01-30T12:02:30;24.95;;;8.63;;
22314;SDS011;11325;55.686;37.566;2024-01-30T12:04:58;16.73;;;9.18;;
22314;SDS011;11325;55.686;37.566;2024-01-30T12:07:29;19.87;;;8.33;;
22314;SDS011;11325;55.686;37.566;2024-01-30T12:09:58;17.05;;;8.65;;
22314;SDS011;11325;55.686;37.566;2024-01-30T12:12:29;18.90;;;8.75;;
22314;SDS011;11325;55.686;37.566;2024-01-30T12:14:58;19.10;;;8.05;;
22314;SDS011;11325;55.686;37.566;2024-01-30T12:17:30;18.60;;;8.70;;
22314;SDS011;11325;55.686;37.566;2024-01-30T12:20:11;15.78;;;8.20;;
22314;SDS011;11325;55.686;37.566;2024-01-30T12:22:42;19.75;;;9.18;;
22314;SDS011;11325;55.686;37.566;2024-01-30T12:25:14;20.05;;;8.10;;
22314;SDS011;11325;55.686;37.566;2024-01-30T12:27:43;15.25;;;8.38;;
22314;SDS011;11325;55.686;37.566;2024-01-30T12:30:13;20.02;;;8.93;;
22314;SDS011;11325;55.686;37.566;2024-01-30T12:32:42;18.07;;;8.93;;
22314;SDS011;11325;55.686;37.566;2024-01-30T12:35:11;15.50;;;8.30;;
22314;SDS011;11325;55.686;37.566;2024-01-30T12:37:40;20.70;;;8.63;;
22314;SDS011;11325;55.686;37.566;2024-01-30T12:40:09;19.62;;;8.38;;
22314;SDS011;11325;55.686;37.566;2024-01-30T12:42:38;20.92;;;8.73;;
22314;SDS011;11325;55.686;37.566;2024-01-30T12:45:07;15.70;;;7.92;;
22314;SDS011;11325;55.686;37.566;2024-01-30T12:47:36;15.65;;;8.28;;
22314;SDS011;11325;55.686;37.566;2024-01-30T12:50:05;23.40;;;9.50;;
22314;SDS011;11325;55.686;37.566;2024-01-30T12:52:34;28.45;;;9.33;;
22314;SDS011;11325;55.686;37.566;2024-01-30T12:55:03;18.82;;;9.30;;
22314;SDS011;11325;55.686;37.566;2024-01-30T12:57:32;16.15;;;8.10;;
22314;SDS011;11325;55.686;37.566;2024-01-30T13:00:00;26.87;;;10.03;;
22314;SDS011;11325;55.686;37.566;2024-01-30T13:02:31;15.83;;;8.03;;
22314;SDS011;11325;55.686;37.566;2024-01-30T13:05:02;24.77;;;9.18;;
22314;SDS011;11325;55.686;37.566;2024-01-30T13:07:31;18.42;;;8.48;;
22314;SDS011;11325;55.686;37.566;2024-01-30T13:10:00;15.38;;;8.30;;
22314;SDS011;11325;55.686;37.566;2024-01-30T13:12:32;16.70;;;7.75;;
22314;SDS011;11325;55.686;37.566;2024-01-30T13:15:01;17.05;;;9.08;;
22314;SDS011;11325;55.686;37.566;2024-01-30T13:17:33;18.95;;;8.80;;
22314;SDS011;11325;55.686;37.566;2024-01-30T13:20:03;13.40;;;7.90;;
22314;SDS011;11325;55.686;37.566;2024-01-30T13:22:32;14.33;;;8.30;;
22314;SDS011;11325;55.686;37.566;2024-01-30T13:25:00;20.60;;;8.60;;
22314;SDS011;11325;55.686;37.566;2024-01-30T13:27:30;24.12;;;8.63;;
22314;SDS011;11325;55.686;37.566;2024-01-30T13:29:58;27.93;;;9.50;;
22314;SDS011;11325;55.686;37.566;2024-01-30T13:32:28;15.90;;;7.95;;
22314;SDS011;11325;55.686;37.566;2024-01-30T13:34:57;17.35;;;8.45;;
22314;SDS011;11325;55.686;37.566;2024-01-30T13:37:26;20.68;;;9.05;;
22314;SDS011;11325;55.686;37.566;2024-01-30T13:39:55;17.17;;;8.80;;
22314;SDS011;11325;55.686;37.566;2024-01-30T13:42:24;22.22;;;7.95;;
22314;SDS011;11325;55.686;37.566;2024-01-30T13:44:52;15.45;;;7.75;;
22314;SDS011;11325;55.686;37.566;2024-01-30T13:47:21;18.17;;;8.95;;
22314;SDS011;11325;55.686;37.566;2024-01-30T13:49:50;17.45;;;8.65;;
22314;SDS011;11325;55.686;37.566;2024-01-30T13:52:20;23.02;;;9.58;;
22314;SDS011;11325;55.686;37.566;2024-01-30T13:54:49;19.15;;;7.35;;
22314;SDS011;11325;55.686;37.566;2024-01-30T13:57:17;14.68;;;8.25;;
22314;SDS011;11325;55.686;37.566;2024-01-30T13:59:46;17.42;;;8.53;;
22314;SDS011;11325;55.686;37.566;2024-01-30T14:02:15;19.73;;;8.48;;
22314;SDS011;11325;55.686;37.566;2024-01-30T14:04:44;22.65;;;9.20;;
22314;SDS011;11325;55.686;37.566;2024-01-30T14:07:12;25.50;;;8.65;;
22314;SDS011;11325;55.686;37.566;2024-01-30T14:09:41;25.68;;;9.45;;
22314;SDS011;11325;55.686;37.566;2024-01-30T14:12:09;21.35;;;9.85;;
22314;SDS011;11325;55.686;37.566;2024-01-30T14:14:38;20.17;;;9.05;;
22314;SDS011;11325;55.686;37.566;2024-01-30T14:17:06;18.02;;;8.35;;
22314;SDS011;11325;55.686;37.566;2024-01-30T14:19:35;23.85;;;8.63;;
22314;SDS011;11325;55.686;37.566;2024-01-30T14:22:04;23.07;;;9.48;;
22314;SDS011;11325;55.686;37.566;2024-01-30T14:24:33;20.08;;;9.28;;
22314;SDS011;11325;55.686;37.566;2024-01-30T14:27:02;17.48;;;8.70;;
22314;SDS011;11325;55.686;37.566;2024-01-30T14:29:30;20.95;;;9.05;;
22314;SDS011;11325;55.686;37.566;2024-01-30T14:31:59;24.43;;;8.98;;
22314;SDS011;11325;55.686;37.566;2024-01-30T14:34:28;19.85;;;9.03;;